Weather at Simferopol International Airport

Public forecast

Using degrees Celsius for public forecast. Weather courtesy of forecast.io.

Closest aviation weather report (METAR) to Simferopol International Airport

Closest report is Anapa Vityazevo Airport, 143.1 nm (265.1 km) E.

2024/05/22 04:00 (retrieved 31 minutes ago)

URKA 220400Z 10003MPS 070V130 CAVOK 18/10 Q1015 R03/010070 NOSIG RMK QFE757/1010

Closest aviation forecast (TAF) to Simferopol International Airport

Forecast is more than 6 hours old.

Closest forecast is Kukës International Airport, 616.4 nm (1,141.6 km) WSW.

2024/05/21 18:00 Ammendment (retrieved 11 hours ago)

TAF AMD LAKU 211904Z 2118/2218 CNL